Addisleigh Park, New York
Current Conditions -  °F | °C
As of 9:51 AM on Thursday 30 Oct 2014 (Local Time) from KJFK Reporting Station
Scattered Clouds Scattered Clouds  
Wind Chill: 57°   Ceiling: Unl
Heat Index: 57°   Visibility: 10mi
Dew Point: 42°   Wind: 13mph
Humidity: 57%   Direction: 320°NW
Pressure: 30"   Gusts: NA
Location:  40.6565°N, 73.7829°W
Report Text: KJFK 301351Z 32011KT 10SM SCT065 SCT250 14/06 A3000 RMK AO2 SLP159 T01390056
Loading
Personal Weather Stations






























Interactive Weather Map
Tropical Storm Tracking
New forecast layout! Learn more

10-Day Weather Forecast

Advertisements
Track Severe Weather on mobile